This is the latest recevied weather packets stored in our database for station/object MARKET. If no packets are shown the sender has not sent any weather packets the latest 10 day(s).
| Time | Temp. | Humidity | Pressure | Rain* | Wind** | Luminosity | Snow |
|---|---|---|---|---|---|---|---|
| 1778117248 | 5° C | 73% | 1014.7 hPa | - | - | - | - |
| 1778116048 | 5° C | 76% | 1014.8 hPa | - | - | - | - |
| 1778114848 | 5° C | 75% | 1014.6 hPa | - | - | - | - |
| 1778113648 | 5.56° C | 74% | 1014.5 hPa | - | - | - | - |
| 1778112448 | 5.56° C | 75% | 1014.5 hPa | - | - | - | - |
| 1778111249 | 5.56° C | 76% | 1014.4 hPa | - | - | - | - |
| 1778110048 | 5.56° C | 77% | 1014.4 hPa | - | - | - | - |
| 1778108849 | 5° C | 79% | 1014.4 hPa | - | - | - | - |
| 1778107647 | 5.56° C | 79% | 1014.4 hPa | - | - | - | - |
| 1778106448 | 5° C | 78% | 1014.2 hPa | - | - | - | - |
| 1778105248 | 5.56° C | 72% | 1013.9 hPa | - | - | - | - |
| 1778104048 | 5.56° C | 72% | 1014 hPa | - | - | - | - |
| 1778102848 | 5.56° C | 71% | 1013.9 hPa | - | - | - | - |
| 1778101850 | 5.56° C | 73% | 1013.9 hPa | - | - | - | - |
| 1778100447 | 5.56° C | 78% | 1014 hPa | - | - | - | - |
| 1778099247 | 5.56° C | 75% | 1014.1 hPa | - | - | - | - |
| 1778098048 | 5.56° C | 75% | 1014.1 hPa | - | - | - | - |
| 1778096847 | 5.56° C | 76% | 1014 hPa | - | - | - | - |
| 1778095647 | 5.56° C | 74% | 1014 hPa | - | - | - | - |
| 1778094447 | 5.56° C | 74% | 1014 hPa | - | - | - | - |
| 1778093246 | 5.56° C | 78% | 1014 hPa | - | - | - | - |
| 1778092047 | 6.11° C | 78% | 1014 hPa | - | - | - | - |
| 1778090847 | 6.11° C | 78% | 1014 hPa | - | - | - | - |
| 1778089647 | 6.11° C | 75% | 1013.9 hPa | - | - | - | - |
| 1778088446 | 6.67° C | 73% | 1013.8 hPa | - | - | - | - |
* Rain since midnight (hover to see other rain measurements)
** Current wind speed in m/s (hover to see current wind gust speed)